CheckWX is a tool to help pilots better visualize weather data.  It is not intended as a substitute for an official pre-flight weather briefing.

14:49:53 UTC

SBBI TAF
Bacacheri Airport
Curitiba, Brazil
TAF SBBI 230900Z 2312/2324 08004KT 9999 SCT012 BKN020 TN16/2312Z TX27/2318Z BECMG 2314/2316 24006KT SCT025 BECMG 2322/2324 08003KT FEW020 RMK PCX

Mar-23@
12:00 UTC

Mar-23 @ 12:00 UTC

Mar-23@
14:00 UTC

Mar-23 @ 14:00 UTC

TAF SBBI 230900Z 2312/2324 08004KT 9999 SCT012 BKN020 TN16/2312Z TX27/2318Z

Expired

Wind
  • 080° at 4 KTS
Cloud Levels
  • Scattered at 1,200' AGL
  • Broken at 2,000' AGL

Mar-23@
14:00 UTC

Mar-23 @ 14:00 UTC

Mar-23@
22:00 UTC

Mar-23 @ 22:00 UTC

BECMG 2314/2316 24006KT SCT025

Becoming

Becoming Conditions expected by Sat, Mar 23, 2019 @ 16:00 UTC

Wind
  • 240° at 6 KTS
Cloud Levels
  • Scattered at 2,500' AGL

Mar-23@
22:00 UTC

Mar-23 @ 22:00 UTC

Mar-24@
00:00 UTC

Mar-24 @ 00:00 UTC

BECMG 2322/2324 08003KT FEW020 RMK PCX

Becoming

Becoming Conditions expected by Sun, Mar 24, 2019 @ 00:00 UTC

Wind
  • 080° at 3 KTS
Cloud Levels
  • Few at 2,000' AGL